Portada
METAR-TAF:

METAR-TAF

Aeropuertos :

John H. Batten Airport

Racine, Wisconsin, Estados Unidos

latitud: 42-45-31N, longitud: 087-49-04W, altitud: 205 m

Observación

El informe se hizo hace 1 hora y 14 minutos, a las 17:53 UTC
Viento 8 kt del suroeste con ráfagas de 14 kt
Temperatura 33°C
Humedad 46%
Presión 1022 hPa
Visibilidad: 16.1 km
Cielo despejado

METAR: KRAC 191753Z AUTO 22008G14KT 10SM CLR 33/20 A3018 RMK AO2 PK WND 21026/1659 SLP215 T03330200 10333 20261 51002

Hora: 14:07 (19:07 UTC)


TAF: falta

Observaciones y pronósticos meteorológicos de más de 4000 aeropuertos (mensajes METAR y TAF).

Los puntos amarillos y rojos representan las estaciones disponibles.

Ponga el ratón en el punto deseado para ver el nombre de la estación.

Haga clic para ver las observaciones y los pronósticos meteorológicos.

Para cambiar el mapa : haga clic en los botones verdes con una cruz de color negro para hacer un zoom, en el botón verde con un guión para alejar o en las flechas verdes para mapas adyacentes.


METAR-TAF: